createdAt,value
2022-08-23T00:02:02.371Z,2.60
2022-08-23T00:04:34.941Z,4.00
2022-08-23T00:07:03.817Z,2.83
2022-08-23T00:09:31.944Z,2.97
2022-08-23T00:12:06.575Z,2.53
2022-08-23T00:14:37.306Z,2.92
2022-08-23T00:17:05.533Z,2.10
2022-08-23T00:19:33.670Z,3.10
2022-08-23T00:22:01.782Z,2.60
2022-08-23T00:24:29.927Z,3.55
2022-08-23T00:27:00.788Z,2.35
2022-08-23T00:29:31.303Z,2.85
2022-08-23T00:32:01.080Z,2.28
2022-08-23T00:34:29.405Z,2.63
2022-08-23T00:36:57.561Z,1.70
2022-08-23T00:39:25.778Z,2.10
2022-08-23T00:41:53.962Z,2.13
2022-08-23T00:44:41.318Z,2.00
2022-08-23T00:47:28.077Z,2.17
2022-08-23T00:49:57.803Z,2.50
2022-08-23T00:52:29.521Z,2.10
2022-08-23T00:54:58.103Z,2.10
2022-08-23T00:57:26.287Z,2.03
2022-08-23T00:59:54.477Z,1.88
2022-08-23T01:02:24.037Z,2.42
2022-08-23T01:04:55.885Z,2.47
2022-08-23T01:07:29.566Z,2.10
2022-08-23T01:09:58.939Z,2.45
2022-08-23T01:12:33.287Z,2.80
2022-08-23T01:15:02.980Z,3.85
2022-08-23T01:17:35.494Z,2.15
2022-08-23T01:20:06.195Z,1.70
2022-08-23T01:22:35.527Z,1.90
2022-08-23T01:25:08.911Z,3.00
2022-08-23T01:27:41.425Z,2.00
2022-08-23T01:30:14.989Z,2.15
2022-08-23T01:32:45.829Z,2.10
2022-08-23T01:35:14.534Z,1.98
2022-08-23T01:37:43.785Z,2.63
2022-08-23T01:40:14.633Z,1.75
2022-08-23T01:42:43.038Z,1.83
2022-08-23T01:45:13.959Z,1.63
2022-08-23T01:47:42.170Z,1.90
2022-08-23T01:50:11.377Z,2.15
2022-08-23T01:52:39.541Z,1.90
2022-08-23T01:55:18.274Z,3.70
2022-08-23T01:57:49.549Z,3.45
2022-08-23T02:00:19.341Z,1.85
2022-08-23T02:02:48.257Z,3.72
2022-08-23T02:05:19.037Z,1.80
2022-08-23T02:07:48.186Z,2.05
2022-08-23T02:10:19.532Z,2.53
2022-08-23T02:12:47.864Z,1.60
2022-08-23T02:15:17.942Z,1.60
2022-08-23T02:17:48.569Z,1.88
2022-08-23T02:20:17.322Z,1.73
2022-08-23T02:22:45.591Z,1.63
2022-08-23T02:25:14.483Z,2.42
2022-08-23T02:27:44.616Z,1.70
2022-08-23T02:30:15.359Z,1.98
2022-08-23T02:32:44.448Z,1.90
2022-08-23T02:35:13.445Z,2.03
2022-08-23T02:37:41.561Z,1.88
2022-08-23T02:40:11.172Z,2.63
2022-08-23T02:42:39.343Z,1.65
2022-08-23T02:45:09.738Z,2.50
2022-08-23T02:47:45.191Z,2.50
2022-08-23T02:50:19.182Z,2.88
2022-08-23T02:52:47.951Z,1.88
2022-08-23T02:55:16.356Z,1.75
2022-08-23T02:57:44.766Z,2.58
2022-08-23T03:00:16.675Z,1.70
2022-08-23T03:02:45.531Z,1.73
2022-08-23T03:05:14.439Z,1.95
2022-08-23T03:07:43.277Z,1.85
2022-08-23T03:10:15.044Z,3.78
2022-08-23T03:12:48.419Z,2.17
2022-08-23T03:15:18.068Z,1.55
2022-08-23T03:17:46.316Z,2.85
2022-08-23T03:20:14.654Z,1.70
2022-08-23T03:22:48.438Z,2.08
2022-08-23T03:25:22.763Z,1.70
2022-08-23T03:28:04.654Z,4.00
2022-08-23T03:30:35.259Z,2.25
2022-08-23T03:33:04.794Z,1.88
2022-08-23T03:35:33.125Z,2.03
2022-08-23T03:38:03.222Z,2.63
2022-08-23T03:40:31.803Z,5.55
2022-08-23T03:43:01.445Z,5.18
2022-08-23T03:45:31.040Z,1.83
2022-08-23T03:48:00.775Z,2.55
2022-08-23T03:50:29.133Z,2.38
2022-08-23T03:52:57.406Z,2.92
2022-08-23T03:55:26.097Z,2.13
2022-08-23T03:57:54.311Z,24.48
2022-08-23T04:00:23.114Z,1.40
2022-08-23T04:02:53.582Z,1.40
2022-08-23T04:05:24.294Z,1.85
2022-08-23T04:08:01.648Z,1.95
2022-08-23T04:10:30.126Z,2.35
2022-08-23T04:12:58.260Z,1.35
2022-08-23T04:15:26.554Z,1.60
2022-08-23T04:17:54.698Z,1.83
2022-08-23T04:20:26.273Z,2.13
2022-08-23T04:23:05.009Z,1.50
2022-08-23T04:25:40.362Z,2.97
2022-08-23T04:28:09.010Z,1.58
2022-08-23T04:30:37.211Z,4.28
2022-08-23T04:33:10.214Z,1.30
2022-08-23T04:35:41.493Z,1.35
2022-08-23T04:38:18.138Z,2.92
2022-08-23T04:41:11.796Z,3.05
2022-08-23T04:43:40.745Z,1.90
2022-08-23T04:46:10.322Z,1.48
2022-08-23T04:48:38.680Z,1.77
2022-08-23T04:51:08.209Z,1.40
2022-08-23T04:53:38.967Z,1.40
2022-08-23T04:56:30.565Z,1.83
2022-08-23T04:58:58.814Z,2.03
2022-08-23T05:01:27.842Z,2.47
2022-08-23T05:03:57.192Z,2.67
2022-08-23T05:06:28.827Z,6.05
2022-08-23T05:08:57.178Z,1.50
2022-08-23T05:11:25.594Z,4.35
2022-08-23T05:13:53.995Z,6.97
2022-08-23T05:16:23.609Z,3.90
2022-08-23T05:19:11.442Z,4.18
2022-08-23T05:21:45.925Z,2.78
2022-08-23T05:24:14.917Z,2.22
2022-08-23T05:26:45.102Z,3.13
2022-08-23T05:29:13.386Z,2.03
2022-08-23T05:31:46.873Z,2.83
2022-08-23T05:34:22.787Z,3.22
2022-08-23T05:36:59.780Z,6.50
2022-08-23T05:39:37.485Z,7.50
2022-08-23T05:42:14.274Z,8.90
2022-08-23T05:44:43.323Z,8.02
2022-08-23T05:47:15.083Z,9.63
2022-08-23T05:50:09.330Z,6.60
2022-08-23T05:52:40.121Z,3.97
2022-08-23T05:55:09.066Z,5.80
2022-08-23T05:57:53.042Z,5.78
2022-08-23T06:00:21.377Z,4.80
2022-08-23T06:03:01.812Z,7.72
2022-08-23T06:05:30.037Z,7.82
2022-08-23T06:08:02.074Z,5.45
2022-08-23T06:10:32.446Z,6.38
2022-08-23T06:13:10.443Z,4.88
2022-08-23T06:15:43.493Z,4.10
2022-08-23T06:18:13.626Z,4.03
2022-08-23T06:20:42.712Z,3.92
2022-08-23T06:23:17.092Z,5.25
2022-08-23T06:25:45.549Z,6.80
2022-08-23T06:28:16.026Z,5.28
2022-08-23T06:30:44.334Z,6.22
2022-08-23T06:33:20.812Z,4.80
2022-08-23T06:36:08.983Z,4.70
2022-08-23T06:39:11.235Z,4.22
2022-08-23T06:42:01.211Z,2.65
2022-08-23T06:44:31.495Z,7.50
2022-08-23T06:47:14.999Z,3.85
2022-08-23T06:49:51.129Z,4.88
2022-08-23T06:52:48.612Z,9.32
2022-08-23T06:55:27.670Z,8.98
2022-08-23T06:58:06.335Z,6.32
2022-08-23T07:01:35.039Z,6.80
2022-08-23T07:04:07.437Z,5.07
2022-08-23T07:06:54.327Z,6.70
2022-08-23T07:09:22.994Z,6.45
2022-08-23T07:11:52.804Z,4.60
2022-08-23T07:14:21.841Z,4.72
2022-08-23T07:16:51.501Z,6.03
2022-08-23T07:19:21.341Z,4.65
2022-08-23T07:21:49.982Z,6.57
2022-08-23T07:24:18.649Z,4.15
2022-08-23T07:26:47.677Z,6.18
2022-08-23T07:29:17.914Z,4.28
2022-08-23T07:31:47.323Z,4.65
2022-08-23T07:34:16.221Z,8.63
2022-08-23T07:36:45.137Z,8.65
2022-08-23T07:39:13.709Z,7.15
2022-08-23T07:41:42.218Z,5.80
2022-08-23T07:44:12.771Z,6.15
2022-08-23T07:46:49.184Z,6.55
2022-08-23T07:49:18.070Z,5.85
2022-08-23T07:51:49.504Z,4.75
2022-08-23T07:54:19.727Z,3.20
2022-08-23T07:56:54.295Z,3.88
2022-08-23T07:59:42.954Z,3.15
2022-08-23T08:02:31.171Z,2.97
2022-08-23T08:05:00.148Z,4.07
2022-08-23T08:07:28.530Z,10.15
2022-08-23T08:10:04.698Z,3.50
2022-08-23T08:12:33.485Z,3.15
2022-08-23T08:15:11.397Z,5.75
2022-08-23T08:17:42.946Z,5.18
2022-08-23T08:20:11.802Z,5.05
2022-08-23T08:22:59.006Z,3.72
2022-08-23T08:26:02.403Z,5.07
2022-08-23T08:28:31.582Z,4.13
2022-08-23T08:31:00.159Z,5.40
2022-08-23T08:33:30.963Z,4.88
2022-08-23T08:36:03.118Z,6.68
2022-08-23T08:38:38.763Z,4.95
2022-08-23T08:41:18.434Z,3.78
2022-08-23T08:43:54.121Z,2.58
2022-08-23T08:46:26.116Z,4.82
2022-08-23T08:48:58.346Z,4.20
2022-08-23T08:51:39.221Z,6.13
2022-08-23T08:54:10.457Z,4.13
2022-08-23T08:56:42.523Z,2.85
2022-08-23T08:59:24.750Z,2.58
2022-08-23T09:01:53.779Z,2.58
2022-08-23T09:04:34.853Z,9.52
2022-08-23T09:07:08.525Z,2.17
2022-08-23T09:09:49.228Z,3.47
2022-08-23T09:12:21.739Z,3.42
2022-08-23T09:15:02.733Z,8.73
2022-08-23T09:17:43.913Z,3.33
2022-08-23T09:20:15.367Z,12.38
2022-08-23T09:22:48.429Z,16.20
2022-08-23T09:25:25.813Z,17.52
2022-08-23T09:28:03.953Z,48.95
2022-08-23T09:30:50.322Z,40.92
2022-08-23T09:33:20.493Z,63.78
2022-08-23T09:36:05.269Z,64.20
2022-08-23T09:38:34.909Z,50.25
2022-08-23T09:41:17.990Z,60.20
2022-08-23T09:43:49.121Z,49.40
2022-08-23T09:46:26.657Z,62.88
2022-08-23T09:48:58.303Z,56.25
2022-08-23T09:51:35.304Z,57.28
2022-08-23T09:54:08.034Z,63.45
2022-08-23T09:56:38.691Z,60.50
2022-08-23T09:59:35.217Z,52.13
2022-08-23T10:02:16.744Z,67.32
2022-08-23T10:04:47.618Z,60.72
2022-08-23T10:07:26.114Z,38.75
2022-08-23T10:09:56.970Z,37.88
2022-08-23T10:12:25.812Z,28.38
2022-08-23T10:14:54.881Z,28.92
2022-08-23T10:17:30.596Z,37.10
2022-08-23T10:20:04.208Z,14.95
2022-08-23T10:22:41.089Z,26.63
2022-08-23T10:25:34.434Z,20.60
2022-08-23T10:28:39.394Z,16.70
2022-08-23T10:31:12.640Z,11.32
2022-08-23T10:33:44.337Z,11.43
2022-08-23T10:36:15.768Z,18.63
2022-08-23T10:38:47.878Z,9.30
2022-08-23T10:41:26.650Z,7.38
2022-08-23T10:43:59.221Z,7.38
2022-08-23T10:46:27.574Z,13.25
2022-08-23T10:48:57.985Z,8.23
2022-08-23T10:51:32.058Z,6.85
2022-08-23T10:54:06.328Z,6.07
2022-08-23T10:56:35.483Z,6.65
2022-08-23T10:59:05.776Z,6.10
2022-08-23T11:01:36.688Z,8.68
2022-08-23T11:04:06.571Z,7.60
2022-08-23T11:06:58.089Z,6.63
2022-08-23T11:09:58.204Z,7.50
2022-08-23T11:12:32.246Z,4.72
2022-08-23T11:15:12.885Z,4.15
2022-08-23T11:17:56.138Z,7.38
2022-08-23T11:21:02.186Z,5.03
2022-08-23T11:23:53.899Z,5.68
2022-08-23T11:27:06.720Z,3.90
2022-08-23T11:29:43.709Z,6.00
2022-08-23T11:32:43.954Z,4.55
2022-08-23T11:35:29.158Z,4.45
2022-08-23T11:38:03.852Z,2.80
2022-08-23T11:40:44.521Z,3.65
2022-08-23T11:43:23.458Z,6.93
2022-08-23T11:45:53.648Z,3.28
2022-08-23T11:48:24.502Z,5.43
2022-08-23T11:51:07.730Z,5.88
2022-08-23T11:53:43.745Z,5.90
2022-08-23T11:56:29.460Z,3.85
2022-08-23T11:59:08.982Z,5.35
2022-08-23T12:01:39.710Z,3.80
2022-08-23T12:04:11.649Z,3.70
2022-08-23T12:06:42.657Z,2.45
2022-08-23T12:09:56.033Z,1.35
2022-08-23T12:12:32.526Z,2.70
2022-08-23T12:15:06.750Z,3.20
2022-08-23T12:18:13.618Z,2.72
2022-08-23T12:20:41.902Z,12.15
2022-08-23T12:23:18.805Z,12.57
2022-08-23T12:25:47.114Z,12.10
2022-08-23T12:28:39.507Z,4.35
2022-08-23T12:31:15.858Z,5.75
2022-08-23T12:33:57.533Z,3.10
2022-08-23T12:36:31.741Z,2.00
2022-08-23T12:39:02.774Z,3.17
2022-08-23T12:41:32.144Z,4.50
2022-08-23T12:44:03.226Z,2.40
2022-08-23T12:46:37.951Z,2.90
2022-08-23T12:49:08.627Z,3.50
2022-08-23T12:51:43.014Z,4.93
2022-08-23T12:54:15.173Z,5.07
2022-08-23T12:56:45.957Z,8.50
2022-08-23T12:59:35.495Z,6.45
2022-08-23T13:02:04.326Z,8.77
2022-08-23T13:04:34.221Z,8.05
2022-08-23T13:07:04.795Z,5.90
2022-08-23T13:09:34.297Z,5.72
2022-08-23T13:12:02.711Z,4.72
2022-08-23T13:14:36.553Z,6.00
2022-08-23T13:17:15.913Z,7.45
2022-08-23T13:19:45.602Z,2.78
2022-08-23T13:22:14.891Z,3.10
2022-08-23T13:24:43.947Z,4.90
2022-08-23T13:27:18.264Z,4.25
2022-08-23T13:29:51.195Z,4.68
2022-08-23T13:32:30.469Z,3.28
2022-08-23T13:35:29.378Z,3.65
2022-08-23T13:37:59.489Z,6.03
2022-08-23T13:40:30.076Z,3.67
2022-08-23T13:42:59.618Z,2.40
2022-08-23T13:45:29.144Z,2.83
2022-08-23T13:47:59.185Z,3.80
2022-08-23T13:50:30.353Z,4.25
2022-08-23T13:53:15.372Z,4.20
2022-08-23T13:55:45.690Z,3.47
2022-08-23T13:58:15.265Z,3.50
2022-08-23T14:00:46.942Z,9.88
2022-08-23T14:03:24.238Z,4.90
2022-08-23T14:05:53.970Z,6.10
2022-08-23T14:08:22.309Z,6.35
2022-08-23T14:10:50.395Z,3.38
2022-08-23T14:13:18.670Z,3.95
2022-08-23T14:18:35.217Z,2.58
2022-08-23T14:21:06.271Z,3.15
2022-08-23T14:23:34.525Z,2.92
2022-08-23T14:26:02.609Z,3.38
2022-08-23T14:28:31.371Z,2.80
2022-08-23T14:30:59.581Z,2.63
2022-08-23T14:33:28.066Z,5.68
2022-08-23T14:35:57.365Z,4.47
2022-08-23T14:38:27.057Z,7.22
2022-08-23T14:40:57.656Z,2.00
2022-08-23T14:43:26.933Z,2.25
2022-08-23T14:45:55.234Z,3.40
2022-08-23T14:48:25.450Z,5.32
2022-08-23T14:50:53.627Z,2.05
2022-08-23T14:53:22.990Z,2.50
2022-08-23T14:56:12.317Z,2.17
2022-08-23T14:58:42.869Z,5.28
2022-08-23T15:01:11.613Z,7.88
2022-08-23T15:03:42.007Z,13.90
2022-08-23T15:06:10.391Z,10.73
2022-08-23T15:08:38.768Z,11.45
2022-08-23T15:14:00.139Z,6.00
2022-08-23T15:16:28.760Z,6.00
2022-08-23T15:18:56.951Z,5.10
2022-08-23T15:21:25.029Z,8.13
2022-08-23T15:23:53.199Z,15.27
2022-08-23T15:26:23.764Z,22.50
2022-08-23T15:28:52.126Z,17.70
2022-08-23T15:31:20.293Z,13.80
2022-08-23T15:33:49.230Z,11.63
2022-08-23T15:36:17.314Z,9.23
2022-08-23T15:38:47.749Z,6.72
2022-08-23T15:41:16.006Z,6.13
2022-08-23T15:43:46.259Z,3.65
2022-08-23T15:46:19.162Z,3.67
2022-08-23T15:48:49.686Z,4.63
2022-08-23T15:51:18.063Z,4.30
2022-08-23T15:53:46.176Z,5.97
2022-08-23T15:56:16.450Z,16.00
2022-08-23T15:58:45.986Z,15.48
2022-08-23T16:01:14.167Z,19.95
2022-08-23T16:03:43.874Z,22.33
2022-08-23T16:06:13.002Z,23.13
2022-08-23T16:08:42.329Z,21.95
2022-08-23T16:11:12.836Z,31.55
2022-08-23T16:13:45.467Z,28.17
2022-08-23T16:16:16.955Z,38.35
2022-08-23T16:18:45.207Z,38.80
2022-08-23T16:21:13.362Z,36.00
2022-08-23T16:23:43.122Z,25.02
2022-08-23T16:26:15.245Z,13.40
2022-08-23T16:28:45.786Z,11.00
2022-08-23T16:31:13.946Z,15.48
2022-08-23T16:33:42.137Z,22.67
2022-08-23T16:36:10.463Z,24.50
2022-08-23T16:38:38.751Z,22.42
2022-08-23T16:41:07.487Z,16.38
2022-08-23T16:43:35.574Z,14.23
2022-08-23T16:46:06.366Z,12.20
2022-08-23T16:48:34.634Z,13.70
2022-08-23T16:51:02.733Z,15.60
2022-08-23T16:53:30.921Z,15.73
2022-08-23T16:55:59.056Z,16.65
2022-08-23T16:58:27.231Z,15.18
2022-08-23T17:00:55.392Z,14.65
2022-08-23T17:03:27.178Z,15.07
2022-08-23T17:05:55.473Z,16.58
2022-08-23T17:08:23.544Z,14.82
2022-08-23T17:10:51.684Z,15.57
2022-08-23T17:13:19.811Z,14.98
2022-08-23T17:15:47.994Z,14.20
2022-08-23T17:18:16.143Z,13.55
2022-08-23T17:20:45.753Z,13.02
2022-08-23T17:23:14.024Z,12.95
2022-08-23T17:25:47.834Z,12.30
2022-08-23T17:28:16.402Z,11.75
2022-08-23T17:30:44.654Z,12.60
2022-08-23T17:33:12.902Z,12.52
2022-08-23T17:35:41.310Z,13.13
2022-08-23T17:38:10.861Z,13.90
2022-08-23T17:40:40.181Z,13.88
2022-08-23T17:43:08.394Z,10.13
2022-08-23T17:45:41.549Z,5.55
2022-08-23T17:48:09.732Z,6.38
2022-08-23T17:50:38.170Z,6.55
2022-08-23T17:53:06.338Z,10.25
2022-08-23T17:55:36.542Z,6.47
2022-08-23T17:58:05.194Z,7.82
2022-08-23T18:00:33.581Z,7.40
2022-08-23T18:03:01.985Z,8.73
2022-08-23T18:05:31.021Z,9.02
2022-08-23T18:07:59.227Z,7.07
2022-08-23T18:10:27.698Z,7.18
2022-08-23T18:12:58.587Z,6.72
2022-08-23T18:15:27.057Z,6.95
2022-08-23T18:17:58.362Z,8.68
2022-08-23T18:20:26.987Z,4.03
2022-08-23T18:22:55.763Z,8.75
2022-08-23T18:25:24.001Z,11.27
2022-08-23T18:28:11.281Z,5.97
2022-08-23T18:30:47.782Z,8.07
2022-08-23T18:33:16.158Z,6.13
2022-08-23T18:35:46.914Z,6.90
2022-08-23T18:38:15.050Z,7.05
2022-08-23T18:40:49.095Z,6.63
2022-08-23T18:43:18.470Z,7.00
2022-08-23T18:45:48.701Z,5.90
2022-08-23T18:48:16.934Z,6.45
2022-08-23T18:50:45.171Z,7.25
2022-08-23T18:53:13.622Z,6.20
2022-08-23T18:55:41.831Z,5.50
2022-08-23T18:58:10.168Z,5.97
2022-08-23T19:00:38.697Z,8.15
2022-08-23T19:03:08.417Z,5.68
2022-08-23T19:05:41.665Z,6.40
2022-08-23T19:08:10.789Z,6.60
2022-08-23T19:10:39.090Z,6.25
2022-08-23T19:13:09.091Z,6.15
2022-08-23T19:15:38.322Z,5.85
2022-08-23T19:18:08.235Z,8.07
2022-08-23T19:20:37.442Z,6.18
2022-08-23T19:23:05.714Z,7.07
2022-08-23T19:25:38.632Z,6.72
2022-08-23T19:28:07.287Z,6.78
2022-08-23T19:30:35.767Z,6.20
2022-08-23T19:33:04.241Z,6.22
2022-08-23T19:35:34.051Z,4.43
2022-08-23T19:38:02.331Z,6.25
2022-08-23T19:40:30.717Z,5.45
2022-08-23T19:43:00.492Z,4.97
2022-08-23T19:45:31.787Z,6.22
2022-08-23T19:48:00.855Z,5.20
2022-08-23T19:50:29.344Z,4.13
2022-08-23T19:52:58.883Z,4.38
2022-08-23T19:55:27.534Z,4.53
2022-08-23T19:57:55.782Z,5.32
2022-08-23T20:00:24.143Z,4.57
2022-08-23T20:02:52.450Z,5.80
2022-08-23T20:05:20.937Z,4.85
2022-08-23T20:07:49.214Z,4.35
2022-08-23T20:10:18.803Z,5.03
2022-08-23T20:12:46.966Z,3.88
2022-08-23T20:15:15.394Z,3.90
2022-08-23T20:17:43.566Z,3.92
2022-08-23T20:20:13.805Z,4.53
2022-08-23T20:23:14.181Z,4.65
2022-08-23T20:25:43.790Z,6.93
2022-08-23T20:28:12.419Z,3.88
2022-08-23T20:30:40.662Z,3.78
2022-08-23T20:33:09.142Z,3.60
2022-08-23T20:35:37.383Z,4.13
2022-08-23T20:38:06.054Z,3.55
2022-08-23T20:40:34.288Z,4.80
2022-08-23T20:43:04.534Z,3.53
2022-08-23T20:45:33.439Z,3.50
2022-08-23T20:48:01.573Z,4.05
2022-08-23T20:50:29.738Z,3.67
2022-08-23T20:52:57.990Z,3.80
2022-08-23T20:55:26.208Z,3.70
2022-08-23T20:57:54.424Z,3.15
2022-08-23T21:00:24.007Z,3.53
2022-08-23T21:02:52.149Z,3.00
2022-08-23T21:05:20.287Z,5.10
2022-08-23T21:07:48.434Z,4.00
2022-08-23T21:10:16.612Z,7.03
2022-08-23T21:12:45.646Z,3.80
2022-08-23T21:15:13.778Z,3.15
2022-08-23T21:17:43.281Z,3.70
2022-08-23T21:20:15.882Z,5.85
2022-08-23T21:22:43.959Z,3.22
2022-08-23T21:25:12.386Z,4.28
2022-08-23T21:27:40.489Z,4.70
2022-08-23T21:30:09.757Z,2.70
2022-08-23T21:32:37.943Z,4.75
2022-08-23T21:35:08.433Z,3.88
2022-08-23T21:37:36.849Z,4.47
2022-08-23T21:40:05.956Z,3.38
2022-08-23T21:42:34.227Z,4.50
2022-08-23T21:45:03.002Z,2.90
2022-08-23T21:47:31.193Z,5.15
2022-08-23T21:49:59.333Z,4.70
2022-08-23T21:52:28.972Z,5.03
2022-08-23T21:54:57.186Z,2.67
2022-08-23T21:57:25.374Z,2.80
2022-08-23T21:59:53.538Z,3.53
2022-08-23T22:02:21.797Z,2.75
2022-08-23T22:04:50.378Z,4.82
2022-08-23T22:07:18.507Z,4.22
2022-08-23T22:09:48.586Z,2.60
2022-08-23T22:12:16.746Z,3.80
2022-08-23T22:14:45.359Z,3.28
2022-08-23T22:17:16.312Z,2.63
2022-08-23T22:19:44.860Z,3.63
2022-08-23T22:22:14.993Z,3.60
2022-08-23T22:24:43.159Z,2.75
2022-08-23T22:27:13.213Z,8.32
2022-08-23T22:29:41.554Z,4.00
2022-08-23T22:32:13.491Z,4.65
2022-08-23T22:34:41.608Z,2.25
2022-08-23T22:37:09.714Z,3.53
2022-08-23T22:39:37.799Z,4.15
2022-08-23T22:42:06.415Z,3.03
2022-08-23T22:44:39.629Z,4.72
2022-08-23T22:47:07.935Z,3.88
2022-08-23T22:49:36.083Z,2.83
2022-08-23T22:52:04.693Z,3.53
2022-08-23T22:54:32.835Z,2.45
2022-08-23T22:57:01.102Z,1.90
2022-08-23T22:59:33.019Z,2.25
2022-08-23T23:02:04.240Z,2.03
2022-08-23T23:04:32.885Z,3.42
2022-08-23T23:07:01.015Z,8.00
2022-08-23T23:09:29.322Z,2.25
2022-08-23T23:11:57.592Z,5.45
2022-08-23T23:14:26.247Z,2.95
2022-08-23T23:16:54.696Z,5.28
2022-08-23T23:19:41.650Z,4.25
2022-08-23T23:22:11.211Z,2.20
2022-08-23T23:24:40.050Z,2.42
2022-08-23T23:27:08.251Z,3.33
2022-08-23T23:29:36.582Z,5.07
2022-08-23T23:32:05.680Z,3.65
2022-08-23T23:34:35.169Z,4.47
2022-08-23T23:37:03.326Z,2.75
2022-08-23T23:39:31.632Z,2.63
2022-08-23T23:41:59.759Z,4.35
2022-08-23T23:44:31.481Z,4.60
2022-08-23T23:47:00.708Z,2.65
2022-08-23T23:49:31.971Z,5.63
2022-08-23T23:52:03.639Z,4.25
2022-08-23T23:54:32.117Z,6.95
2022-08-23T23:57:01.037Z,2.50
2022-08-23T23:59:29.149Z,2.58
